sensor_id;sensor_type;location;lat;lon;timestamp;temperature;humidity
32296;DHT22;18781;51.550;5.418;2022-09-09T00:01:19;19.20;65.70
32296;DHT22;18781;51.550;5.418;2022-09-09T00:03:59;19.10;65.90
32296;DHT22;18781;51.550;5.418;2022-09-09T00:06:33;19.10;66.20
32296;DHT22;18781;51.550;5.418;2022-09-09T00:09:08;19.10;65.80
32296;DHT22;18781;51.550;5.418;2022-09-09T00:11:56;19.10;66.10
32296;DHT22;18781;51.550;5.418;2022-09-09T00:17:12;19.00;66.20
32296;DHT22;18781;51.550;5.418;2022-09-09T00:19:48;19.00;66.20
32296;DHT22;18781;51.550;5.418;2022-09-09T00:22:20;19.00;66.10
32296;DHT22;18781;51.550;5.418;2022-09-09T00:24:51;18.90;66.10
32296;DHT22;18781;51.550;5.418;2022-09-09T00:27:39;18.90;66.30
32296;DHT22;18781;51.550;5.418;2022-09-09T00:30:24;18.90;66.20
32296;DHT22;18781;51.550;5.418;2022-09-09T00:32:54;18.90;66.50
32296;DHT22;18781;51.550;5.418;2022-09-09T00:35:32;18.90;66.10
32296;DHT22;18781;51.550;5.418;2022-09-09T00:38:13;18.90;66.30
32296;DHT22;18781;51.550;5.418;2022-09-09T00:43:37;18.80;66.60
32296;DHT22;18781;51.550;5.418;2022-09-09T00:46:20;18.80;66.20
32296;DHT22;18781;51.550;5.418;2022-09-09T00:55:04;18.70;67.00
32296;DHT22;18781;51.550;5.418;2022-09-09T00:57:35;18.70;66.90
32296;DHT22;18781;51.550;5.418;2022-09-09T01:03:19;18.70;67.00
32296;DHT22;18781;51.550;5.418;2022-09-09T01:05:56;18.60;67.00
32296;DHT22;18781;51.550;5.418;2022-09-09T01:11:51;18.60;66.40
32296;DHT22;18781;51.550;5.418;2022-09-09T01:14:32;18.60;66.90
32296;DHT22;18781;51.550;5.418;2022-09-09T01:17:23;18.50;67.10
32296;DHT22;18781;51.550;5.418;2022-09-09T01:20:15;18.50;67.30
32296;DHT22;18781;51.550;5.418;2022-09-09T01:22:44;18.50;67.30
32296;DHT22;18781;51.550;5.418;2022-09-09T01:28:09;18.50;67.20
32296;DHT22;18781;51.550;5.418;2022-09-09T01:30:38;18.40;67.20
32296;DHT22;18781;51.550;5.418;2022-09-09T01:33:07;18.50;67.20
32296;DHT22;18781;51.550;5.418;2022-09-09T01:35:55;18.40;67.00
32296;DHT22;18781;51.550;5.418;2022-09-09T01:38:24;18.40;67.40
32296;DHT22;18781;51.550;5.418;2022-09-09T01:40:50;18.40;67.20
32296;DHT22;18781;51.550;5.418;2022-09-09T01:43:19;18.40;67.20
32296;DHT22;18781;51.550;5.418;2022-09-09T01:45:46;18.40;67.40
32296;DHT22;18781;51.550;5.418;2022-09-09T01:48:14;18.40;67.30
32296;DHT22;18781;51.550;5.418;2022-09-09T01:50:40;18.40;67.40
32296;DHT22;18781;51.550;5.418;2022-09-09T01:53:06;18.40;67.40
32296;DHT22;18781;51.550;5.418;2022-09-09T01:55:40;18.30;67.40
32296;DHT22;18781;51.550;5.418;2022-09-09T02:01:12;18.30;67.90
32296;DHT22;18781;51.550;5.418;2022-09-09T02:03:41;18.30;67.90
32296;DHT22;18781;51.550;5.418;2022-09-09T02:08:49;18.30;67.70
32296;DHT22;18781;51.550;5.418;2022-09-09T02:11:18;18.30;68.20
32296;DHT22;18781;51.550;5.418;2022-09-09T02:13:46;18.30;68.00
32296;DHT22;18781;51.550;5.418;2022-09-09T02:16:30;18.30;67.90
32296;DHT22;18781;51.550;5.418;2022-09-09T02:19:13;18.30;68.10
32296;DHT22;18781;51.550;5.418;2022-09-09T02:21:41;18.30;67.90
32296;DHT22;18781;51.550;5.418;2022-09-09T02:24:09;18.20;68.00
32296;DHT22;18781;51.550;5.418;2022-09-09T02:26:39;18.20;68.10
32296;DHT22;18781;51.550;5.418;2022-09-09T02:29:08;18.20;68.10
32296;DHT22;18781;51.550;5.418;2022-09-09T02:31:35;18.20;68.10
32296;DHT22;18781;51.550;5.418;2022-09-09T02:34:03;18.20;68.10
32296;DHT22;18781;51.550;5.418;2022-09-09T02:36:32;18.20;68.20
32296;DHT22;18781;51.550;5.418;2022-09-09T02:38:59;18.20;68.20
32296;DHT22;18781;51.550;5.418;2022-09-09T02:41:32;18.20;68.20
32296;DHT22;18781;51.550;5.418;2022-09-09T02:43:58;18.20;68.40
32296;DHT22;18781;51.550;5.418;2022-09-09T02:49:57;18.10;68.60
32296;DHT22;18781;51.550;5.418;2022-09-09T02:52:42;18.10;68.60
32296;DHT22;18781;51.550;5.418;2022-09-09T02:57:47;18.10;68.60
32296;DHT22;18781;51.550;5.418;2022-09-09T03:00:13;18.10;68.30
32296;DHT22;18781;51.550;5.418;2022-09-09T03:02:40;18.10;68.40
32296;DHT22;18781;51.550;5.418;2022-09-09T03:05:06;18.10;68.40
32296;DHT22;18781;51.550;5.418;2022-09-09T03:07:32;18.10;68.50
32296;DHT22;18781;51.550;5.418;2022-09-09T03:09:57;18.10;68.40
32296;DHT22;18781;51.550;5.418;2022-09-09T03:12:24;18.10;68.60
32296;DHT22;18781;51.550;5.418;2022-09-09T03:14:49;18.10;68.40
32296;DHT22;18781;51.550;5.418;2022-09-09T03:17:15;18.10;68.40
32296;DHT22;18781;51.550;5.418;2022-09-09T03:19:40;18.10;68.50
32296;DHT22;18781;51.550;5.418;2022-09-09T03:22:08;18.10;68.60
32296;DHT22;18781;51.550;5.418;2022-09-09T03:24:35;18.10;68.50
32296;DHT22;18781;51.550;5.418;2022-09-09T03:27:00;18.10;68.70
32296;DHT22;18781;51.550;5.418;2022-09-09T03:29:26;18.10;68.70
32296;DHT22;18781;51.550;5.418;2022-09-09T03:31:52;18.10;68.70
32296;DHT22;18781;51.550;5.418;2022-09-09T03:34:17;18.10;68.70
32296;DHT22;18781;51.550;5.418;2022-09-09T03:36:43;18.10;68.80
32296;DHT22;18781;51.550;5.418;2022-09-09T03:39:09;18.10;69.00
32296;DHT22;18781;51.550;5.418;2022-09-09T03:41:34;18.10;69.50
32296;DHT22;18781;51.550;5.418;2022-09-09T03:44:00;18.10;69.00
32296;DHT22;18781;51.550;5.418;2022-09-09T03:46:25;18.10;68.90
32296;DHT22;18781;51.550;5.418;2022-09-09T03:48:51;18.10;68.90
32296;DHT22;18781;51.550;5.418;2022-09-09T03:51:20;18.10;68.90
32296;DHT22;18781;51.550;5.418;2022-09-09T03:53:47;18.10;68.90
32296;DHT22;18781;51.550;5.418;2022-09-09T03:56:13;18.10;69.00
32296;DHT22;18781;51.550;5.418;2022-09-09T03:58:38;18.10;69.20
32296;DHT22;18781;51.550;5.418;2022-09-09T04:01:07;18.10;69.20
32296;DHT22;18781;51.550;5.418;2022-09-09T04:03:35;18.10;69.30
32296;DHT22;18781;51.550;5.418;2022-09-09T04:06:02;18.10;69.30
32296;DHT22;18781;51.550;5.418;2022-09-09T04:08:28;18.10;69.40
32296;DHT22;18781;51.550;5.418;2022-09-09T04:10:56;18.10;69.40
32296;DHT22;18781;51.550;5.418;2022-09-09T04:13:23;18.00;69.30
32296;DHT22;18781;51.550;5.418;2022-09-09T04:15:57;18.10;69.40
32296;DHT22;18781;51.550;5.418;2022-09-09T04:18:23;18.10;69.80
32296;DHT22;18781;51.550;5.418;2022-09-09T04:20:50;18.00;69.50
32296;DHT22;18781;51.550;5.418;2022-09-09T04:23:17;18.00;69.60
32296;DHT22;18781;51.550;5.418;2022-09-09T04:25:48;18.00;69.70
32296;DHT22;18781;51.550;5.418;2022-09-09T04:28:19;18.00;70.10
32296;DHT22;18781;51.550;5.418;2022-09-09T04:30:45;18.00;70.20
32296;DHT22;18781;51.550;5.418;2022-09-09T04:33:11;18.00;69.90
32296;DHT22;18781;51.550;5.418;2022-09-09T04:35:38;18.00;69.90
32296;DHT22;18781;51.550;5.418;2022-09-09T04:38:04;18.00;70.10
32296;DHT22;18781;51.550;5.418;2022-09-09T04:40:32;18.00;70.10
32296;DHT22;18781;51.550;5.418;2022-09-09T04:42:59;18.00;70.20
32296;DHT22;18781;51.550;5.418;2022-09-09T04:45:25;18.00;70.10
32296;DHT22;18781;51.550;5.418;2022-09-09T04:47:51;18.00;70.20
32296;DHT22;18781;51.550;5.418;2022-09-09T04:50:17;18.00;70.10
32296;DHT22;18781;51.550;5.418;2022-09-09T04:52:44;18.00;70.70
32296;DHT22;18781;51.550;5.418;2022-09-09T04:55:09;18.00;70.20
32296;DHT22;18781;51.550;5.418;2022-09-09T04:57:35;18.00;70.20
32296;DHT22;18781;51.550;5.418;2022-09-09T05:00:02;18.00;70.20
32296;DHT22;18781;51.550;5.418;2022-09-09T05:02:28;18.00;70.30
32296;DHT22;18781;51.550;5.418;2022-09-09T05:04:55;18.00;70.20
32296;DHT22;18781;51.550;5.418;2022-09-09T05:07:21;18.10;70.30
32296;DHT22;18781;51.550;5.418;2022-09-09T05:09:47;18.10;70.40
32296;DHT22;18781;51.550;5.418;2022-09-09T05:12:15;18.00;70.40
32296;DHT22;18781;51.550;5.418;2022-09-09T05:14:44;18.10;70.60
32296;DHT22;18781;51.550;5.418;2022-09-09T05:17:10;18.10;70.60
32296;DHT22;18781;51.550;5.418;2022-09-09T05:19:36;18.10;71.10
32296;DHT22;18781;51.550;5.418;2022-09-09T05:22:02;18.10;70.60
32296;DHT22;18781;51.550;5.418;2022-09-09T05:24:28;18.10;70.70
32296;DHT22;18781;51.550;5.418;2022-09-09T05:26:54;18.10;70.70
32296;DHT22;18781;51.550;5.418;2022-09-09T05:29:25;18.10;70.70
32296;DHT22;18781;51.550;5.418;2022-09-09T05:31:51;18.10;70.70
32296;DHT22;18781;51.550;5.418;2022-09-09T05:34:17;18.10;70.80
32296;DHT22;18781;51.550;5.418;2022-09-09T05:36:43;18.10;70.80
32296;DHT22;18781;51.550;5.418;2022-09-09T05:39:08;18.10;70.80
32296;DHT22;18781;51.550;5.418;2022-09-09T05:41:34;18.10;70.80
32296;DHT22;18781;51.550;5.418;2022-09-09T05:44:00;18.10;70.90
32296;DHT22;18781;51.550;5.418;2022-09-09T05:46:27;18.10;71.00
32296;DHT22;18781;51.550;5.418;2022-09-09T05:48:53;18.10;71.00
32296;DHT22;18781;51.550;5.418;2022-09-09T05:51:22;18.10;71.10
32296;DHT22;18781;51.550;5.418;2022-09-09T05:53:49;18.10;71.30
32296;DHT22;18781;51.550;5.418;2022-09-09T05:56:18;18.10;71.20
32296;DHT22;18781;51.550;5.418;2022-09-09T05:58:45;18.20;71.40
32296;DHT22;18781;51.550;5.418;2022-09-09T06:01:17;18.20;71.50
32296;DHT22;18781;51.550;5.418;2022-09-09T06:03:45;18.20;71.80
32296;DHT22;18781;51.550;5.418;2022-09-09T06:06:13;18.20;71.50
32296;DHT22;18781;51.550;5.418;2022-09-09T06:08:41;18.20;71.40
32296;DHT22;18781;51.550;5.418;2022-09-09T06:11:15;18.20;71.60
32296;DHT22;18781;51.550;5.418;2022-09-09T06:13:41;18.20;71.70
32296;DHT22;18781;51.550;5.418;2022-09-09T06:16:09;18.20;71.70
32296;DHT22;18781;51.550;5.418;2022-09-09T06:18:37;18.30;72.00
32296;DHT22;18781;51.550;5.418;2022-09-09T06:21:05;18.30;71.90
32296;DHT22;18781;51.550;5.418;2022-09-09T06:23:32;18.30;72.00
32296;DHT22;18781;51.550;5.418;2022-09-09T06:26:10;18.30;72.00
32296;DHT22;18781;51.550;5.418;2022-09-09T06:28:42;18.40;72.20
32296;DHT22;18781;51.550;5.418;2022-09-09T06:31:10;18.40;72.40
32296;DHT22;18781;51.550;5.418;2022-09-09T06:33:37;18.40;72.30
32296;DHT22;18781;51.550;5.418;2022-09-09T06:36:07;18.40;72.20
32296;DHT22;18781;51.550;5.418;2022-09-09T06:38:35;18.50;72.20
32296;DHT22;18781;51.550;5.418;2022-09-09T06:41:01;18.50;72.00
32296;DHT22;18781;51.550;5.418;2022-09-09T06:43:27;18.50;72.10
32296;DHT22;18781;51.550;5.418;2022-09-09T06:45:58;18.50;72.20
32296;DHT22;18781;51.550;5.418;2022-09-09T06:48:25;18.60;72.40
32296;DHT22;18781;51.550;5.418;2022-09-09T06:51:02;18.60;72.20
32296;DHT22;18781;51.550;5.418;2022-09-09T06:53:28;18.60;71.90
32296;DHT22;18781;51.550;5.418;2022-09-09T06:55:54;18.70;71.90
32296;DHT22;18781;51.550;5.418;2022-09-09T06:58:20;18.70;72.00
32296;DHT22;18781;51.550;5.418;2022-09-09T07:00:47;18.80;72.10
32296;DHT22;18781;51.550;5.418;2022-09-09T07:03:13;18.80;72.20
32296;DHT22;18781;51.550;5.418;2022-09-09T07:05:39;18.80;72.10
32296;DHT22;18781;51.550;5.418;2022-09-09T07:08:04;18.90;72.10
32296;DHT22;18781;51.550;5.418;2022-09-09T07:10:30;18.90;72.10
32296;DHT22;18781;51.550;5.418;2022-09-09T07:12:56;18.90;71.90
32296;DHT22;18781;51.550;5.418;2022-09-09T07:15:21;19.00;71.80
32296;DHT22;18781;51.550;5.418;2022-09-09T07:17:48;19.10;71.60
32296;DHT22;18781;51.550;5.418;2022-09-09T07:20:14;19.10;71.90
32296;DHT22;18781;51.550;5.418;2022-09-09T07:22:40;19.10;72.00
32296;DHT22;18781;51.550;5.418;2022-09-09T07:25:07;19.20;72.10
32296;DHT22;18781;51.550;5.418;2022-09-09T07:27:32;19.30;72.00
32296;DHT22;18781;51.550;5.418;2022-09-09T07:29:58;19.30;71.70
32296;DHT22;18781;51.550;5.418;2022-09-09T07:32:24;19.30;71.50
32296;DHT22;18781;51.550;5.418;2022-09-09T07:34:51;19.40;71.30
32296;DHT22;18781;51.550;5.418;2022-09-09T07:37:17;19.50;71.00
32296;DHT22;18781;51.550;5.418;2022-09-09T07:39:43;19.50;70.90
32296;DHT22;18781;51.550;5.418;2022-09-09T07:42:09;19.50;70.60
32296;DHT22;18781;51.550;5.418;2022-09-09T07:44:37;19.50;70.20
32296;DHT22;18781;51.550;5.418;2022-09-09T07:47:05;19.60;70.40
32296;DHT22;18781;51.550;5.418;2022-09-09T07:49:31;19.60;70.30
32296;DHT22;18781;51.550;5.418;2022-09-09T07:51:57;19.60;70.30
32296;DHT22;18781;51.550;5.418;2022-09-09T07:54:23;19.70;70.20
32296;DHT22;18781;51.550;5.418;2022-09-09T07:56:50;19.70;70.10
32296;DHT22;18781;51.550;5.418;2022-09-09T07:59:16;19.70;70.20
32296;DHT22;18781;51.550;5.418;2022-09-09T08:01:50;19.70;70.30
32296;DHT22;18781;51.550;5.418;2022-09-09T08:04:20;19.80;70.10
32296;DHT22;18781;51.550;5.418;2022-09-09T08:06:54;19.80;70.10
32296;DHT22;18781;51.550;5.418;2022-09-09T08:09:21;19.80;69.70
32296;DHT22;18781;51.550;5.418;2022-09-09T08:11:50;19.90;69.90
32296;DHT22;18781;51.550;5.418;2022-09-09T08:14:16;19.90;69.80
32296;DHT22;18781;51.550;5.418;2022-09-09T08:16:44;20.00;69.70
32296;DHT22;18781;51.550;5.418;2022-09-09T08:19:10;20.00;69.40
32296;DHT22;18781;51.550;5.418;2022-09-09T08:21:38;20.00;69.10
32296;DHT22;18781;51.550;5.418;2022-09-09T08:24:05;20.10;69.10
32296;DHT22;18781;51.550;5.418;2022-09-09T08:26:40;20.10;68.80
32296;DHT22;18781;51.550;5.418;2022-09-09T08:29:08;20.10;68.60
32296;DHT22;18781;51.550;5.418;2022-09-09T08:31:53;20.20;68.80
32296;DHT22;18781;51.550;5.418;2022-09-09T08:34:20;20.20;68.90
32296;DHT22;18781;51.550;5.418;2022-09-09T08:36:47;20.20;68.40
32296;DHT22;18781;51.550;5.418;2022-09-09T08:39:15;20.30;68.40
32296;DHT22;18781;51.550;5.418;2022-09-09T08:44:49;20.30;67.70
32296;DHT22;18781;51.550;5.418;2022-09-09T08:47:46;20.40;68.00
32296;DHT22;18781;51.550;5.418;2022-09-09T08:52:59;20.40;67.30
32296;DHT22;18781;51.550;5.418;2022-09-09T08:55:44;20.40;67.40
32296;DHT22;18781;51.550;5.418;2022-09-09T08:58:19;20.50;67.50
32296;DHT22;18781;51.550;5.418;2022-09-09T09:06:43;20.50;67.30
32296;DHT22;18781;51.550;5.418;2022-09-09T09:09:21;20.50;67.10
32296;DHT22;18781;51.550;5.418;2022-09-09T09:11:53;20.50;66.90
32296;DHT22;18781;51.550;5.418;2022-09-09T09:14:24;20.60;67.20
32296;DHT22;18781;51.550;5.418;2022-09-09T09:19:16;20.60;66.70
32296;DHT22;18781;51.550;5.418;2022-09-09T09:22:10;20.70;66.60
32296;DHT22;18781;51.550;5.418;2022-09-09T09:27:32;20.70;66.10
32296;DHT22;18781;51.550;5.418;2022-09-09T09:30:02;20.80;65.80
32296;DHT22;18781;51.550;5.418;2022-09-09T09:32:33;20.80;65.80
32296;DHT22;18781;51.550;5.418;2022-09-09T09:35:02;20.80;66.20
32296;DHT22;18781;51.550;5.418;2022-09-09T09:37:32;20.80;66.60
32296;DHT22;18781;51.550;5.418;2022-09-09T09:40:29;20.80;66.20
32296;DHT22;18781;51.550;5.418;2022-09-09T09:42:59;20.80;66.30
32296;DHT22;18781;51.550;5.418;2022-09-09T09:45:31;20.90;65.90
32296;DHT22;18781;51.550;5.418;2022-09-09T09:48:05;20.90;65.90
32296;DHT22;18781;51.550;5.418;2022-09-09T09:50:32;20.90;66.10
32296;DHT22;18781;51.550;5.418;2022-09-09T09:53:03;20.90;66.50
32296;DHT22;18781;51.550;5.418;2022-09-09T09:55:33;20.90;66.60
32296;DHT22;18781;51.550;5.418;2022-09-09T09:58:02;20.90;66.50
32296;DHT22;18781;51.550;5.418;2022-09-09T10:00:28;20.90;66.90
32296;DHT22;18781;51.550;5.418;2022-09-09T10:02:54;21.00;66.70
32296;DHT22;18781;51.550;5.418;2022-09-09T10:05:24;21.00;66.20
32296;DHT22;18781;51.550;5.418;2022-09-09T10:08:04;21.00;66.40
32296;DHT22;18781;51.550;5.418;2022-09-09T10:13:34;21.00;67.30
32296;DHT22;18781;51.550;5.418;2022-09-09T10:19:03;20.90;66.90
32296;DHT22;18781;51.550;5.418;2022-09-09T10:21:54;20.90;66.90
32296;DHT22;18781;51.550;5.418;2022-09-09T10:27:47;20.90;67.40
32296;DHT22;18781;51.550;5.418;2022-09-09T10:30:20;20.90;67.50
32296;DHT22;18781;51.550;5.418;2022-09-09T10:35:37;20.90;67.30
32296;DHT22;18781;51.550;5.418;2022-09-09T10:46:29;20.90;67.40
32296;DHT22;18781;51.550;5.418;2022-09-09T10:56:54;20.80;67.50
32296;DHT22;18781;51.550;5.418;2022-09-09T10:59:25;20.80;67.40
32296;DHT22;18781;51.550;5.418;2022-09-09T11:02:05;20.80;67.80
32296;DHT22;18781;51.550;5.418;2022-09-09T11:04:51;20.80;68.10
32296;DHT22;18781;51.550;5.418;2022-09-09T11:07:27;20.80;67.50
32296;DHT22;18781;51.550;5.418;2022-09-09T11:09:58;20.80;68.00
32296;DHT22;18781;51.550;5.418;2022-09-09T11:12:27;20.80;68.00
32296;DHT22;18781;51.550;5.418;2022-09-09T11:15:49;20.80;68.00
32296;DHT22;18781;51.550;5.418;2022-09-09T11:17:56;20.80;67.90
32296;DHT22;18781;51.550;5.418;2022-09-09T11:20:23;20.80;67.70
32296;DHT22;18781;51.550;5.418;2022-09-09T11:23:13;20.80;68.20
32296;DHT22;18781;51.550;5.418;2022-09-09T11:25:44;20.90;68.20
32296;DHT22;18781;51.550;5.418;2022-09-09T11:28:32;20.90;68.00
32296;DHT22;18781;51.550;5.418;2022-09-09T11:33:58;20.90;68.20
32296;DHT22;18781;51.550;5.418;2022-09-09T11:36:52;20.90;68.10
32296;DHT22;18781;51.550;5.418;2022-09-09T11:44:38;20.90;67.80
32296;DHT22;18781;51.550;5.418;2022-09-09T11:47:24;20.90;67.90
32296;DHT22;18781;51.550;5.418;2022-09-09T11:52:43;20.90;67.40
32296;DHT22;18781;51.550;5.418;2022-09-09T11:57:57;20.90;67.60
32296;DHT22;18781;51.550;5.418;2022-09-09T12:00:39;20.90;67.60
32296;DHT22;18781;51.550;5.418;2022-09-09T12:03:34;20.90;68.00
32296;DHT22;18781;51.550;5.418;2022-09-09T12:08:50;20.90;68.30
32296;DHT22;18781;51.550;5.418;2022-09-09T12:11:29;20.90;68.40
32296;DHT22;18781;51.550;5.418;2022-09-09T12:13:57;20.90;68.20
32296;DHT22;18781;51.550;5.418;2022-09-09T12:16:34;21.00;68.50
32296;DHT22;18781;51.550;5.418;2022-09-09T12:19:14;21.00;68.80
32296;DHT22;18781;51.550;5.418;2022-09-09T12:22:20;21.10;68.80
32296;DHT22;18781;51.550;5.418;2022-09-09T12:27:45;21.20;68.50
32296;DHT22;18781;51.550;5.418;2022-09-09T12:30:16;21.20;68.10
32296;DHT22;18781;51.550;5.418;2022-09-09T12:32:42;21.20;67.70
32296;DHT22;18781;51.550;5.418;2022-09-09T12:35:14;21.30;67.70
32296;DHT22;18781;51.550;5.418;2022-09-09T12:40:30;21.30;67.30
32296;DHT22;18781;51.550;5.418;2022-09-09T12:42:57;21.30;67.10
32296;DHT22;18781;51.550;5.418;2022-09-09T12:45:29;21.40;66.90
32296;DHT22;18781;51.550;5.418;2022-09-09T12:47:57;21.40;66.90
32296;DHT22;18781;51.550;5.418;2022-09-09T12:50:30;21.40;66.60
32296;DHT22;18781;51.550;5.418;2022-09-09T12:52:59;21.40;66.70
32296;DHT22;18781;51.550;5.418;2022-09-09T12:55:36;21.40;66.60
32296;DHT22;18781;51.550;5.418;2022-09-09T12:58:04;21.40;66.40
32296;DHT22;18781;51.550;5.418;2022-09-09T13:00:32;21.40;66.80
32296;DHT22;18781;51.550;5.418;2022-09-09T13:03:00;21.40;66.90
32296;DHT22;18781;51.550;5.418;2022-09-09T13:05:37;21.40;67.10
32296;DHT22;18781;51.550;5.418;2022-09-09T13:08:08;21.40;67.30
32296;DHT22;18781;51.550;5.418;2022-09-09T13:10:51;21.40;67.70
32296;DHT22;18781;51.550;5.418;2022-09-09T13:13:23;21.40;68.40
32296;DHT22;18781;51.550;5.418;2022-09-09T13:15:52;21.40;68.30
32296;DHT22;18781;51.550;5.418;2022-09-09T13:18:23;21.40;68.60
32296;DHT22;18781;51.550;5.418;2022-09-09T13:20:50;21.50;69.00
32296;DHT22;18781;51.550;5.418;2022-09-09T13:23:18;21.50;69.20
32296;DHT22;18781;51.550;5.418;2022-09-09T13:25:59;21.60;70.00
32296;DHT22;18781;51.550;5.418;2022-09-09T13:28:28;21.60;69.50
32296;DHT22;18781;51.550;5.418;2022-09-09T13:31:02;21.70;69.30
32296;DHT22;18781;51.550;5.418;2022-09-09T13:33:35;21.80;69.60
32296;DHT22;18781;51.550;5.418;2022-09-09T13:36:08;21.80;69.30
32296;DHT22;18781;51.550;5.418;2022-09-09T13:38:55;21.90;69.30
32296;DHT22;18781;51.550;5.418;2022-09-09T13:41:24;21.90;69.80
32296;DHT22;18781;51.550;5.418;2022-09-09T13:43:50;22.00;69.50
32296;DHT22;18781;51.550;5.418;2022-09-09T13:46:36;22.00;69.10
32296;DHT22;18781;51.550;5.418;2022-09-09T13:49:19;22.10;68.20
32296;DHT22;18781;51.550;5.418;2022-09-09T13:51:48;22.10;68.20
32296;DHT22;18781;51.550;5.418;2022-09-09T13:54:17;22.20;68.40
32296;DHT22;18781;51.550;5.418;2022-09-09T13:56:44;22.20;68.20
32296;DHT22;18781;51.550;5.418;2022-09-09T13:59:14;22.30;68.10
32296;DHT22;18781;51.550;5.418;2022-09-09T14:01:41;22.30;67.80
32296;DHT22;18781;51.550;5.418;2022-09-09T14:04:06;22.30;67.70
32296;DHT22;18781;51.550;5.418;2022-09-09T14:06:33;22.30;67.20
32296;DHT22;18781;51.550;5.418;2022-09-09T14:09:04;22.30;67.00
32296;DHT22;18781;51.550;5.418;2022-09-09T14:11:30;22.30;67.10
32296;DHT22;18781;51.550;5.418;2022-09-09T14:13:55;22.30;67.00
32296;DHT22;18781;51.550;5.418;2022-09-09T14:16:21;22.30;66.80
32296;DHT22;18781;51.550;5.418;2022-09-09T14:18:47;22.30;66.60
32296;DHT22;18781;51.550;5.418;2022-09-09T14:21:13;22.40;66.50
32296;DHT22;18781;51.550;5.418;2022-09-09T14:23:39;22.40;66.50
32296;DHT22;18781;51.550;5.418;2022-09-09T14:26:06;22.40;66.60
32296;DHT22;18781;51.550;5.418;2022-09-09T14:28:32;22.40;66.60
32296;DHT22;18781;51.550;5.418;2022-09-09T14:31:03;22.40;66.70
32296;DHT22;18781;51.550;5.418;2022-09-09T14:33:29;22.40;66.60
32296;DHT22;18781;51.550;5.418;2022-09-09T14:36:04;22.40;66.40
32296;DHT22;18781;51.550;5.418;2022-09-09T14:38:34;22.40;66.40
32296;DHT22;18781;51.550;5.418;2022-09-09T14:41:04;22.50;66.80
32296;DHT22;18781;51.550;5.418;2022-09-09T14:43:29;22.50;66.10
32296;DHT22;18781;51.550;5.418;2022-09-09T14:46:04;22.50;65.60
32296;DHT22;18781;51.550;5.418;2022-09-09T14:48:31;22.50;65.30
32296;DHT22;18781;51.550;5.418;2022-09-09T14:50:56;22.50;65.50
32296;DHT22;18781;51.550;5.418;2022-09-09T14:53:22;22.50;65.50
32296;DHT22;18781;51.550;5.418;2022-09-09T14:55:47;22.50;65.50
32296;DHT22;18781;51.550;5.418;2022-09-09T14:58:13;22.50;64.80
32296;DHT22;18781;51.550;5.418;2022-09-09T15:00:39;22.50;64.60
32296;DHT22;18781;51.550;5.418;2022-09-09T15:03:04;22.50;64.80
32296;DHT22;18781;51.550;5.418;2022-09-09T15:05:30;22.50;64.70
32296;DHT22;18781;51.550;5.418;2022-09-09T15:07:57;22.50;64.80
32296;DHT22;18781;51.550;5.418;2022-09-09T15:10:23;22.50;64.50
32296;DHT22;18781;51.550;5.418;2022-09-09T15:12:49;22.50;64.30
32296;DHT22;18781;51.550;5.418;2022-09-09T15:15:15;22.50;63.40
32296;DHT22;18781;51.550;5.418;2022-09-09T15:17:41;22.50;63.40
32296;DHT22;18781;51.550;5.418;2022-09-09T15:20:07;22.40;63.40
32296;DHT22;18781;51.550;5.418;2022-09-09T15:22:33;22.40;64.00
32296;DHT22;18781;51.550;5.418;2022-09-09T15:24:59;22.40;64.00
32296;DHT22;18781;51.550;5.418;2022-09-09T15:27:24;22.30;64.00
32296;DHT22;18781;51.550;5.418;2022-09-09T15:29:50;22.20;64.20
32296;DHT22;18781;51.550;5.418;2022-09-09T15:32:17;22.10;63.50
32296;DHT22;18781;51.550;5.418;2022-09-09T15:34:42;22.00;63.40
32296;DHT22;18781;51.550;5.418;2022-09-09T15:37:10;21.90;63.30
32296;DHT22;18781;51.550;5.418;2022-09-09T15:39:39;21.80;63.30
32296;DHT22;18781;51.550;5.418;2022-09-09T15:42:05;21.80;63.60
32296;DHT22;18781;51.550;5.418;2022-09-09T15:44:39;21.70;63.90
32296;DHT22;18781;51.550;5.418;2022-09-09T15:47:04;21.60;63.90
32296;DHT22;18781;51.550;5.418;2022-09-09T15:49:30;21.60;64.60
32296;DHT22;18781;51.550;5.418;2022-09-09T15:51:58;21.50;64.90
32296;DHT22;18781;51.550;5.418;2022-09-09T15:54:25;21.40;65.00
32296;DHT22;18781;51.550;5.418;2022-09-09T15:56:56;21.40;65.40
32296;DHT22;18781;51.550;5.418;2022-09-09T15:59:26;21.40;65.70
32296;DHT22;18781;51.550;5.418;2022-09-09T16:01:53;21.40;65.50
32296;DHT22;18781;51.550;5.418;2022-09-09T16:04:21;21.40;65.60
32296;DHT22;18781;51.550;5.418;2022-09-09T16:06:54;21.30;65.70
32296;DHT22;18781;51.550;5.418;2022-09-09T16:09:21;21.30;66.00
32296;DHT22;18781;51.550;5.418;2022-09-09T16:11:46;21.30;66.10
32296;DHT22;18781;51.550;5.418;2022-09-09T16:14:13;21.20;65.90
32296;DHT22;18781;51.550;5.418;2022-09-09T16:16:41;21.20;66.10
32296;DHT22;18781;51.550;5.418;2022-09-09T16:19:09;21.20;66.10
32296;DHT22;18781;51.550;5.418;2022-09-09T16:21:41;21.20;66.20
32296;DHT22;18781;51.550;5.418;2022-09-09T16:24:09;21.20;66.20
32296;DHT22;18781;51.550;5.418;2022-09-09T16:26:37;21.20;66.40
32296;DHT22;18781;51.550;5.418;2022-09-09T16:29:03;21.10;66.30
32296;DHT22;18781;51.550;5.418;2022-09-09T16:31:29;21.10;66.50
32296;DHT22;18781;51.550;5.418;2022-09-09T16:33:57;21.10;66.40
32296;DHT22;18781;51.550;5.418;2022-09-09T16:36:25;21.10;66.70
32296;DHT22;18781;51.550;5.418;2022-09-09T16:38:55;21.00;66.80
32296;DHT22;18781;51.550;5.418;2022-09-09T16:41:23;21.00;67.00
32296;DHT22;18781;51.550;5.418;2022-09-09T16:43:56;21.00;66.90
32296;DHT22;18781;51.550;5.418;2022-09-09T16:46:22;20.90;67.20
32296;DHT22;18781;51.550;5.418;2022-09-09T16:48:49;20.90;67.10
32296;DHT22;18781;51.550;5.418;2022-09-09T16:51:17;20.90;67.10
32296;DHT22;18781;51.550;5.418;2022-09-09T16:53:44;20.90;67.10
32296;DHT22;18781;51.550;5.418;2022-09-09T16:56:12;20.80;66.90
32296;DHT22;18781;51.550;5.418;2022-09-09T16:58:38;20.80;66.90
32296;DHT22;18781;51.550;5.418;2022-09-09T17:01:04;20.80;67.00
32296;DHT22;18781;51.550;5.418;2022-09-09T17:03:31;20.80;67.30
32296;DHT22;18781;51.550;5.418;2022-09-09T17:05:58;20.70;67.10
32296;DHT22;18781;51.550;5.418;2022-09-09T17:08:29;20.70;67.10
32296;DHT22;18781;51.550;5.418;2022-09-09T17:10:56;20.60;67.10
32296;DHT22;18781;51.550;5.418;2022-09-09T17:13:22;20.60;67.30
32296;DHT22;18781;51.550;5.418;2022-09-09T17:15:47;20.50;67.30
32296;DHT22;18781;51.550;5.418;2022-09-09T17:18:13;20.60;67.40
32296;DHT22;18781;51.550;5.418;2022-09-09T17:20:40;20.50;67.40
32296;DHT22;18781;51.550;5.418;2022-09-09T17:23:07;20.50;67.60
32296;DHT22;18781;51.550;5.418;2022-09-09T17:25:32;20.50;67.70
32296;DHT22;18781;51.550;5.418;2022-09-09T17:27:59;20.50;67.60